Time;durP1;ratioP1;P1;durP2;ratioP2;P2;SDS_P1;SDS_P2;PMS_P1;PMS_P2;Temp;Humidity;BMP_temperature;BMP_pressure;BME280_temperature;BME280_humidity;BME280_pressure;Samples;Min_cycle;Max_cycle;Signal;HPM_P1;HPM_P2
2021/06/29 00:01:24;;;;;;;37.70;20.00;;;;;;;;;;5093138;28;20479;-66
2021/06/29 00:03:49;;;;;;;44.22;19.65;;;;;;;;;;5093202;28;20453;-67
2021/06/29 00:06:15;;;;;;;41.85;20.05;;;;;;;;;;5093114;28;20024;-67
2021/06/29 00:08:40;;;;;;;42.67;20.25;;;;;;;;;;5092872;28;20028;-67
2021/06/29 00:11:05;;;;;;;46.35;20.58;;;;;;;;;;5093157;28;20091;-66
2021/06/29 00:13:31;;;;;;;42.53;20.13;;;;;;;;;;5093201;28;20101;-67
2021/06/29 00:15:56;;;;;;;40.40;18.80;;;;;;;;;;5091798;28;20078;-66
2021/06/29 00:18:21;;;;;;;50.90;21.55;;;;;;;;;;5092962;28;20035;-67
2021/06/29 00:20:46;;;;;;;45.28;21.23;;;;;;;;;;5093030;28;20376;-66
2021/06/29 00:23:12;;;;;;;42.80;19.80;;;;;;;;;;5092851;28;20375;-67
2021/06/29 00:25:37;;;;;;;45.47;19.30;;;;;;;;;;5093064;28;20024;-67
2021/06/29 00:28:02;;;;;;;45.90;20.65;;;;;;;;;;5092825;28;20105;-66
2021/06/29 00:30:28;;;;;;;45.83;22.58;;;;;;;;;;5093031;28;20071;-67
2021/06/29 00:32:53;;;;;;;38.80;18.35;;;;;;;;;;5092752;28;20035;-67
2021/06/29 00:35:18;;;;;;;48.53;21.00;;;;;;;;;;5092497;28;20034;-67
2021/06/29 00:37:44;;;;;;;40.03;19.20;;;;;;;;;;5096047;28;20055;-67
2021/06/29 00:40:09;;;;;;;43.30;18.90;;;;;;;;;;5096521;28;20020;-65
2021/06/29 00:42:35;;;;;;;41.80;19.10;;;;;;;;;;5096570;28;20028;-66
2021/06/29 00:45:00;;;;;;;46.70;20.17;;;;;;;;;;5096755;28;20024;-67
2021/06/29 00:47:26;;;;;;;41.30;19.08;;;;;;;;;;5096462;28;20392;-66
2021/06/29 00:49:51;;;;;;;38.83;17.73;;;;;;;;;;5096581;28;20073;-67
2021/06/29 00:52:17;;;;;;;43.67;18.25;;;;;;;;;;5096479;28;20035;-66
2021/06/29 00:54:43;;;;;;;44.85;20.05;;;;;;;;;;5096422;28;20119;-67
2021/06/29 00:57:09;;;;;;;41.15;17.92;;;;;;;;;;5096392;28;20032;-67
2021/06/29 00:59:35;;;;;;;36.15;16.65;;;;;;;;;;5096210;28;20557;-67
2021/06/29 01:02:00;;;;;;;40.67;18.92;;;;;;;;;;5096314;28;20121;-67
2021/06/29 01:04:25;;;;;;;40.78;17.55;;;;;;;;;;5096291;28;20047;-66
2021/06/29 01:06:52;;;;;;;35.75;17.95;;;;;;;;;;5096488;28;20032;-66
2021/06/29 01:09:18;;;;;;;29.42;15.38;;;;;;;;;;5096269;28;20024;-66
2021/06/29 01:11:44;;;;;;;32.78;16.88;;;;;;;;;;5096118;28;20441;-66
2021/06/29 01:14:11;;;;;;;33.90;15.77;;;;;;;;;;5096074;28;20040;-67
2021/06/29 01:16:36;;;;;;;30.70;16.58;;;;;;;;;;5096012;28;20047;-66
2021/06/29 01:19:01;;;;;;;25.48;14.85;;;;;;;;;;5095781;28;20392;-67
2021/06/29 01:21:33;;;;;;;28.08;15.38;;;;;;;;;;5095966;28;20039;-65
2021/06/29 01:24:00;;;;;;;33.47;15.90;;;;;;;;;;5095871;28;20063;-67
2021/06/29 01:26:29;;;;;;;26.88;15.02;;;;;;;;;;5095912;28;20040;-67
2021/06/29 01:29:06;;;;;;;28.58;15.20;;;;;;;;;;5095812;28;20051;-67
2021/06/29 01:31:32;;;;;;;26.42;14.63;;;;;;;;;;5096065;28;20020;-66
2021/06/29 01:33:58;;;;;;;27.70;14.13;;;;;;;;;;5095656;28;20047;-67
2021/06/29 01:36:24;;;;;;;26.65;14.82;;;;;;;;;;5095478;28;20384;-67
2021/06/29 01:38:50;;;;;;;21.20;14.10;;;;;;;;;;5095527;28;20027;-66
2021/06/29 01:41:18;;;;;;;25.73;15.20;;;;;;;;;;5077003;28;20032;-66
2021/06/29 01:43:50;;;;;;;29.63;15.63;;;;;;;;;;5074996;28;20024;-66
2021/06/29 01:46:16;;;;;;;23.05;14.55;;;;;;;;;;5075072;28;20021;-66
2021/06/29 01:48:49;;;;;;;23.27;14.70;;;;;;;;;;5075067;28;20036;-66
2021/06/29 01:51:14;;;;;;;21.60;14.15;;;;;;;;;;5074926;28;20104;-66
2021/06/29 01:53:39;;;;;;;31.70;15.07;;;;;;;;;;5075052;28;20162;-66
2021/06/29 01:56:07;;;;;;;31.30;15.13;;;;;;;;;;5073924;28;20033;-67
2021/06/29 01:58:33;;;;;;;25.38;14.23;;;;;;;;;;5074686;28;20107;-66
2021/06/29 02:00:59;;;;;;;26.27;14.18;;;;;;;;;;5074682;28;20029;-67
2021/06/29 02:03:25;;;;;;;23.17;14.73;;;;;;;;;;5074719;28;20029;-67
2021/06/29 02:05:51;;;;;;;27.58;16.35;;;;;;;;;;5074889;28;20052;-67
2021/06/29 02:08:16;;;;;;;19.15;13.68;;;;;;;;;;5074525;28;20467;-66
2021/06/29 02:10:41;;;;;;;29.02;15.30;;;;;;;;;;5074534;28;20036;-66
2021/06/29 02:13:07;;;;;;;27.48;14.55;;;;;;;;;;5074955;28;20059;-67
2021/06/29 02:15:32;;;;;;;21.73;15.05;;;;;;;;;;5074691;28;20028;-66
2021/06/29 02:17:57;;;;;;;22.23;14.00;;;;;;;;;;5074591;28;20036;-67
2021/06/29 02:20:22;;;;;;;28.00;15.98;;;;;;;;;;5074629;28;20508;-67
2021/06/29 02:22:49;;;;;;;23.55;14.55;;;;;;;;;;5074159;28;20038;-66
2021/06/29 02:25:14;;;;;;;24.95;14.63;;;;;;;;;;5074439;28;20033;-67
2021/06/29 02:27:40;;;;;;;21.45;14.38;;;;;;;;;;5074364;28;20069;-67
2021/06/29 02:30:06;;;;;;;25.63;16.35;;;;;;;;;;5073216;28;20484;-66
2021/06/29 02:32:31;;;;;;;28.52;16.02;;;;;;;;;;5074309;28;20426;-66
2021/06/29 02:34:56;;;;;;;30.75;16.52;;;;;;;;;;5074211;28;20040;-66
2021/06/29 02:37:21;;;;;;;26.63;14.80;;;;;;;;;;5075709;28;20024;-67
2021/06/29 02:39:47;;;;;;;24.27;14.18;;;;;;;;;;5094445;28;20119;-66
2021/06/29 02:42:12;;;;;;;24.25;13.70;;;;;;;;;;5092813;28;20024;-66
2021/06/29 02:44:38;;;;;;;21.85;14.40;;;;;;;;;;5094189;28;20016;-66
2021/06/29 02:47:03;;;;;;;23.85;13.75;;;;;;;;;;5094319;28;20028;-66
2021/06/29 02:49:29;;;;;;;26.25;15.52;;;;;;;;;;5094332;28;20363;-67
2021/06/29 02:51:55;;;;;;;24.75;15.60;;;;;;;;;;5094198;28;20077;-67
2021/06/29 02:54:21;;;;;;;24.20;14.55;;;;;;;;;;5094207;28;20066;-67
2021/06/29 02:56:46;;;;;;;21.33;15.55;;;;;;;;;;5094152;28;20426;-66
2021/06/29 02:59:12;;;;;;;27.15;15.38;;;;;;;;;;5093693;28;20444;-66
2021/06/29 03:01:38;;;;;;;23.55;14.05;;;;;;;;;;5094175;28;20024;-67
2021/06/29 03:04:03;;;;;;;24.52;14.65;;;;;;;;;;5092579;28;20051;-67
2021/06/29 03:06:29;;;;;;;23.77;15.70;;;;;;;;;;5094199;28;20368;-67
2021/06/29 03:08:54;;;;;;;22.67;15.25;;;;;;;;;;5093816;28;20039;-66
2021/06/29 03:11:19;;;;;;;31.90;16.00;;;;;;;;;;5093980;28;20101;-66
2021/06/29 03:13:45;;;;;;;27.58;15.52;;;;;;;;;;5093763;28;20059;-66
2021/06/29 03:16:11;;;;;;;27.00;16.75;;;;;;;;;;5093950;28;20046;-67
2021/06/29 03:18:36;;;;;;;25.08;15.43;;;;;;;;;;5093653;28;20023;-66
2021/06/29 03:21:02;;;;;;;21.98;15.73;;;;;;;;;;5093585;28;20016;-67
2021/06/29 03:23:27;;;;;;;23.67;15.77;;;;;;;;;;5093217;28;20090;-67
2021/06/29 03:25:52;;;;;;;27.38;14.73;;;;;;;;;;5093442;28;20067;-66
2021/06/29 03:28:18;;;;;;;27.35;16.50;;;;;;;;;;5093602;28;20028;-66
2021/06/29 03:30:43;;;;;;;27.67;17.10;;;;;;;;;;5093698;28;20055;-67
2021/06/29 03:33:08;;;;;;;31.50;16.67;;;;;;;;;;5093356;28;20448;-67
2021/06/29 03:35:34;;;;;;;31.60;18.08;;;;;;;;;;5093565;28;20063;-66
2021/06/29 03:37:59;;;;;;;24.83;16.13;;;;;;;;;;5093378;28;20035;-67
2021/06/29 03:40:24;;;;;;;28.55;17.73;;;;;;;;;;5093527;28;20016;-67
2021/06/29 03:42:50;;;;;;;23.77;16.13;;;;;;;;;;5093372;28;20051;-66
2021/06/29 03:45:15;;;;;;;24.30;15.95;;;;;;;;;;5093444;28;20032;-66
2021/06/29 03:47:40;;;;;;;26.88;18.83;;;;;;;;;;5093616;28;20055;-66
2021/06/29 03:50:06;;;;;;;26.50;16.23;;;;;;;;;;5093523;28;20085;-66
2021/06/29 03:52:31;;;;;;;29.58;17.00;;;;;;;;;;5093260;28;20582;-67
2021/06/29 03:54:56;;;;;;;30.75;19.17;;;;;;;;;;5093241;28;20465;-67
2021/06/29 03:57:22;;;;;;;32.95;19.15;;;;;;;;;;5092959;28;20035;-66
2021/06/29 03:59:47;;;;;;;25.75;17.92;;;;;;;;;;5093234;28;20111;-66
2021/06/29 04:02:13;;;;;;;30.23;18.55;;;;;;;;;;5093230;28;20380;-66
2021/06/29 04:04:38;;;;;;;34.60;17.80;;;;;;;;;;5092834;28;20101;-66
2021/06/29 04:07:06;;;;;;;32.65;17.40;;;;;;;;;;5093113;28;20028;-67
2021/06/29 04:09:31;;;;;;;27.85;16.95;;;;;;;;;;5093234;28;20485;-66
2021/06/29 04:11:57;;;;;;;28.77;17.85;;;;;;;;;;5095542;28;20018;-67
2021/06/29 04:14:23;;;;;;;30.45;17.92;;;;;;;;;;5097101;28;20127;-66
2021/06/29 04:16:48;;;;;;;27.48;18.65;;;;;;;;;;5096998;28;20047;-66
2021/06/29 04:19:13;;;;;;;28.52;18.98;;;;;;;;;;5097237;28;20024;-67
2021/06/29 04:21:39;;;;;;;29.05;18.15;;;;;;;;;;5096921;28;20032;-67
2021/06/29 04:24:07;;;;;;;24.63;16.63;;;;;;;;;;5097313;28;20055;-66
2021/06/29 04:26:33;;;;;;;26.90;17.98;;;;;;;;;;5097116;28;20025;-67
2021/06/29 04:28:58;;;;;;;28.77;17.20;;;;;;;;;;5096929;28;20049;-66
2021/06/29 04:31:24;;;;;;;24.92;17.30;;;;;;;;;;5097096;28;20041;-67
2021/06/29 04:33:49;;;;;;;29.13;18.38;;;;;;;;;;5096765;28;20376;-66
2021/06/29 04:36:14;;;;;;;30.23;18.88;;;;;;;;;;5096716;28;20099;-66
2021/06/29 04:38:40;;;;;;;26.20;17.10;;;;;;;;;;5096551;28;20020;-66
2021/06/29 04:41:05;;;;;;;30.67;19.15;;;;;;;;;;5096959;28;20024;-66
2021/06/29 04:43:31;;;;;;;28.65;17.20;;;;;;;;;;5096388;28;20580;-66
2021/06/29 04:45:56;;;;;;;31.05;18.45;;;;;;;;;;5096216;28;20419;-66
2021/06/29 04:48:22;;;;;;;27.63;18.20;;;;;;;;;;5096632;28;20031;-66
2021/06/29 04:50:47;;;;;;;27.75;17.80;;;;;;;;;;5096643;28;20438;-67
2021/06/29 04:53:12;;;;;;;27.23;17.67;;;;;;;;;;5096421;28;20039;-67
2021/06/29 04:55:38;;;;;;;25.25;16.55;;;;;;;;;;5096514;28;20081;-67
2021/06/29 04:58:03;;;;;;;28.02;16.75;;;;;;;;;;5096391;28;20032;-67
2021/06/29 05:00:28;;;;;;;20.92;15.10;;;;;;;;;;5096488;28;20020;-66
2021/06/29 05:02:54;;;;;;;25.30;15.65;;;;;;;;;;5096260;28;20028;-67
2021/06/29 05:05:20;;;;;;;27.50;16.73;;;;;;;;;;5095489;28;20055;-67
2021/06/29 05:07:47;;;;;;;22.35;15.82;;;;;;;;;;5095084;28;20020;-67
2021/06/29 05:10:13;;;;;;;29.17;16.38;;;;;;;;;;5095103;28;20020;-66
2021/06/29 05:12:38;;;;;;;24.33;16.35;;;;;;;;;;5094924;28;20028;-67
2021/06/29 05:15:05;;;;;;;32.67;18.10;;;;;;;;;;5094919;28;20055;-67
2021/06/29 05:17:30;;;;;;;27.42;18.17;;;;;;;;;;5094936;28;20020;-66
2021/06/29 05:19:55;;;;;;;24.50;16.35;;;;;;;;;;5094822;28;20100;-66
2021/06/29 05:22:21;;;;;;;27.40;18.13;;;;;;;;;;5094501;28;20111;-66
2021/06/29 05:24:46;;;;;;;22.80;15.38;;;;;;;;;;5095200;28;20016;-67
2021/06/29 05:27:11;;;;;;;23.77;14.65;;;;;;;;;;5094803;28;20104;-67
2021/06/29 05:29:36;;;;;;;19.52;14.07;;;;;;;;;;5094653;28;20023;-67
2021/06/29 05:32:02;;;;;;;26.45;15.02;;;;;;;;;;5094781;28;20121;-67
2021/06/29 05:34:27;;;;;;;19.30;13.68;;;;;;;;;;5094558;28;20427;-66
2021/06/29 05:36:53;;;;;;;22.90;14.57;;;;;;;;;;5094636;28;20034;-66
2021/06/29 05:39:18;;;;;;;18.13;13.20;;;;;;;;;;5094206;28;20096;-67
2021/06/29 05:41:44;;;;;;;24.80;14.93;;;;;;;;;;5094580;28;20078;-66
2021/06/29 05:44:09;;;;;;;21.40;14.88;;;;;;;;;;5094451;28;20024;-67
2021/06/29 05:46:35;;;;;;;27.13;15.60;;;;;;;;;;5094506;28;20028;-67
2021/06/29 05:49:02;;;;;;;21.85;10.52;;;;;;;;;;5094375;28;20039;-67
2021/06/29 05:51:27;;;;;;;15.70;9.23;;;;;;;;;;5094372;28;20027;-67
2021/06/29 05:53:53;;;;;;;12.73;8.63;;;;;;;;;;5094298;28;20126;-66
2021/06/29 05:56:18;;;;;;;16.70;7.80;;;;;;;;;;5094324;28;20464;-66
2021/06/29 05:58:43;;;;;;;15.45;9.18;;;;;;;;;;5092945;28;20020;-67
2021/06/29 06:01:09;;;;;;;17.17;9.25;;;;;;;;;;5094625;28;20039;-67
2021/06/29 06:03:43;;;;;;;15.32;10.48;;;;;;;;;;4758003;28;18659666;-67
2021/06/29 06:06:09;;;;;;;16.58;9.23;;;;;;;;;;5095157;28;20238;-66
2021/06/29 06:08:34;;;;;;;13.93;9.73;;;;;;;;;;5094707;28;20020;-67
2021/06/29 06:10:59;;;;;;;17.75;8.93;;;;;;;;;;5095396;28;20056;-67
2021/06/29 06:13:25;;;;;;;12.40;8.48;;;;;;;;;;5095146;28;20044;-67
2021/06/29 06:15:52;;;;;;;12.68;8.80;;;;;;;;;;5094964;28;20028;-67
2021/06/29 06:18:18;;;;;;;13.70;8.10;;;;;;;;;;5094817;28;20031;-66
2021/06/29 06:20:43;;;;;;;14.35;8.88;;;;;;;;;;5095239;28;20384;-67
2021/06/29 06:23:08;;;;;;;12.70;8.15;;;;;;;;;;5094451;28;20052;-67
2021/06/29 06:25:34;;;;;;;12.85;8.02;;;;;;;;;;5094688;28;20016;-67
2021/06/29 06:28:01;;;;;;;13.60;8.75;;;;;;;;;;5094617;28;20032;-67
2021/06/29 06:30:26;;;;;;;18.48;9.88;;;;;;;;;;5094970;28;20107;-66
2021/06/29 06:32:51;;;;;;;14.75;9.88;;;;;;;;;;5094183;28;20051;-67
2021/06/29 06:35:17;;;;;;;11.23;7.60;;;;;;;;;;5093508;28;20036;-66
2021/06/29 06:37:42;;;;;;;13.35;8.75;;;;;;;;;;5094305;28;20030;-67
2021/06/29 06:40:08;;;;;;;18.02;11.32;;;;;;;;;;5094514;28;20016;-67
2021/06/29 06:42:33;;;;;;;20.58;12.02;;;;;;;;;;5094812;28;20039;-66
2021/06/29 06:44:59;;;;;;;20.08;13.05;;;;;;;;;;5094333;28;20391;-66
2021/06/29 06:47:24;;;;;;;21.70;12.65;;;;;;;;;;5094480;28;20051;-66
2021/06/29 06:49:50;;;;;;;24.33;12.23;;;;;;;;;;5094263;28;20031;-67
2021/06/29 06:52:16;;;;;;;13.18;9.30;;;;;;;;;;5094398;28;20028;-67
2021/06/29 06:54:41;;;;;;;13.13;8.90;;;;;;;;;;5092729;28;20046;-66
2021/06/29 06:57:07;;;;;;;12.68;7.57;;;;;;;;;;5094319;28;20491;-66
2021/06/29 06:59:32;;;;;;;25.13;11.18;;;;;;;;;;5094083;28;20038;-66
2021/06/29 07:01:57;;;;;;;17.83;11.07;;;;;;;;;;5094470;28;20032;-67
2021/06/29 07:04:23;;;;;;;19.20;11.45;;;;;;;;;;5093920;28;20075;-66
2021/06/29 07:06:48;;;;;;;21.52;10.80;;;;;;;;;;5093813;28;20035;-66
2021/06/29 07:09:15;;;;;;;16.00;11.55;;;;;;;;;;5093937;28;20020;-67
2021/06/29 07:11:40;;;;;;;17.95;10.55;;;;;;;;;;5093611;28;20393;-67
2021/06/29 07:14:06;;;;;;;16.70;11.10;;;;;;;;;;5092505;28;20040;-67
2021/06/29 07:16:31;;;;;;;15.18;10.40;;;;;;;;;;5094129;28;20440;-66
2021/06/29 07:18:56;;;;;;;15.90;10.95;;;;;;;;;;5093750;28;20031;-66
2021/06/29 07:21:26;;;;;;;16.80;11.07;;;;;;;;;;5093758;28;20033;-66
2021/06/29 07:23:51;;;;;;;13.50;9.38;;;;;;;;;;5093382;28;20481;-67
2021/06/29 07:26:17;;;;;;;11.43;9.23;;;;;;;;;;5093744;28;20032;-67
2021/06/29 07:28:42;;;;;;;14.48;9.85;;;;;;;;;;5093525;28;20024;-67
2021/06/29 07:31:07;;;;;;;16.70;10.35;;;;;;;;;;5093451;28;20020;-67
2021/06/29 07:33:33;;;;;;;14.07;9.20;;;;;;;;;;5093144;28;20051;-66
2021/06/29 07:35:58;;;;;;;13.00;8.55;;;;;;;;;;5093592;28;20043;-67
2021/06/29 07:38:23;;;;;;;13.13;9.18;;;;;;;;;;5093316;28;20092;-66
2021/06/29 07:40:48;;;;;;;10.27;8.23;;;;;;;;;;5093219;28;20480;-67
2021/06/29 07:43:14;;;;;;;12.65;8.52;;;;;;;;;;5093392;28;20038;-66
2021/06/29 07:45:39;;;;;;;14.05;8.60;;;;;;;;;;5093585;28;20020;-66
2021/06/29 07:48:05;;;;;;;15.23;7.53;;;;;;;;;;5093327;28;20043;-66
2021/06/29 07:50:31;;;;;;;14.40;7.88;;;;;;;;;;5093678;28;20058;-67
2021/06/29 07:52:57;;;;;;;10.07;6.82;;;;;;;;;;5093212;28;20024;-66
2021/06/29 07:55:24;;;;;;;12.13;6.30;;;;;;;;;;5093279;28;20380;-66
2021/06/29 07:57:50;;;;;;;9.05;6.78;;;;;;;;;;5093338;28;20157;-67
2021/06/29 08:00:15;;;;;;;10.15;5.97;;;;;;;;;;5093173;28;20463;-67
2021/06/29 08:02:40;;;;;;;7.28;5.00;;;;;;;;;;5093194;28;20036;-67
2021/06/29 08:05:06;;;;;;;13.95;5.63;;;;;;;;;;5093146;28;20040;-66
2021/06/29 08:07:31;;;;;;;8.90;4.85;;;;;;;;;;5093329;28;20465;-67
2021/06/29 08:09:57;;;;;;;13.98;5.35;;;;;;;;;;5093468;28;20115;-67
2021/06/29 08:12:22;;;;;;;8.88;4.90;;;;;;;;;;5093163;28;20029;-66
2021/06/29 08:14:48;;;;;;;8.25;5.03;;;;;;;;;;5092995;28;20040;-66
2021/06/29 08:17:13;;;;;;;7.43;4.70;;;;;;;;;;5093124;28;20061;-67
2021/06/29 08:19:38;;;;;;;11.63;4.95;;;;;;;;;;5093018;28;20031;-67
2021/06/29 08:22:04;;;;;;;7.47;4.50;;;;;;;;;;5093067;28;20377;-66
2021/06/29 08:24:30;;;;;;;8.10;4.63;;;;;;;;;;5092975;28;20111;-67
2021/06/29 08:26:55;;;;;;;9.80;3.85;;;;;;;;;;5092975;28;20103;-67
2021/06/29 08:29:21;;;;;;;7.22;4.20;;;;;;;;;;5093269;28;20402;-67
2021/06/29 08:31:46;;;;;;;8.90;3.97;;;;;;;;;;5092923;28;20090;-67
2021/06/29 08:34:11;;;;;;;14.65;5.03;;;;;;;;;;5092722;28;20093;-67
2021/06/29 08:36:43;;;;;;;8.85;4.32;;;;;;;;;;5091278;28;20031;-67
2021/06/29 08:39:09;;;;;;;8.32;3.67;;;;;;;;;;5092713;28;20024;-66
2021/06/29 08:41:34;;;;;;;8.63;3.75;;;;;;;;;;5092388;28;20476;-66
2021/06/29 08:44:00;;;;;;;6.03;3.45;;;;;;;;;;5092932;28;20031;-67
2021/06/29 08:46:25;;;;;;;5.88;3.55;;;;;;;;;;5092835;28;20040;-66
2021/06/29 08:48:50;;;;;;;8.32;3.67;;;;;;;;;;5092502;28;20020;-67
2021/06/29 08:51:16;;;;;;;7.05;3.72;;;;;;;;;;5092812;28;20020;-67
2021/06/29 08:53:41;;;;;;;6.13;3.22;;;;;;;;;;5092539;28;20040;-66
2021/06/29 08:56:14;;;;;;;5.75;3.65;;;;;;;;;;5092492;28;20031;-67
2021/06/29 08:58:39;;;;;;;8.35;3.28;;;;;;;;;;5095275;28;20460;-66
2021/06/29 09:01:05;;;;;;;8.05;3.55;;;;;;;;;;5096528;28;20043;-66
2021/06/29 09:03:31;;;;;;;10.32;3.47;;;;;;;;;;5096140;28;20031;-67
2021/06/29 09:05:56;;;;;;;5.30;3.15;;;;;;;;;;5095606;28;20022;-67
2021/06/29 09:08:22;;;;;;;5.78;3.35;;;;;;;;;;5096237;28;20035;-66
2021/06/29 09:11:03;;;;;;;6.57;3.38;;;;;;;;;;5096233;28;20085;-67
2021/06/29 09:13:28;;;;;;;4.70;3.35;;;;;;;;;;5095645;28;20504;-66
2021/06/29 09:15:53;;;;;;;6.65;3.50;;;;;;;;;;5096231;28;20060;-67
2021/06/29 09:18:45;;;;;;;4.90;3.13;;;;;;;;;;5096111;28;20457;-66
2021/06/29 09:21:11;;;;;;;8.05;3.80;;;;;;;;;;5094489;28;20040;-66
2021/06/29 09:23:40;;;;;;;4.82;3.28;;;;;;;;;;5096140;28;20036;-67
2021/06/29 09:26:07;;;;;;;7.03;3.88;;;;;;;;;;5095911;28;20027;-67
2021/06/29 09:28:33;;;;;;;8.52;4.38;;;;;;;;;;5096159;28;20032;-67
2021/06/29 09:31:01;;;;;;;9.18;3.38;;;;;;;;;;5095608;28;20373;-67
2021/06/29 09:33:31;;;;;;;8.90;4.30;;;;;;;;;;5095397;28;20035;-66
2021/06/29 09:35:57;;;;;;;7.53;4.30;;;;;;;;;;5095509;28;20396;-67
2021/06/29 09:38:30;;;;;;;9.15;4.03;;;;;;;;;;5095698;28;20043;-67
2021/06/29 09:41:01;;;;;;;6.18;3.95;;;;;;;;;;5095667;28;20028;-67
2021/06/29 09:43:28;;;;;;;6.07;3.70;;;;;;;;;;5095578;28;20109;-67
2021/06/29 09:45:55;;;;;;;10.18;3.97;;;;;;;;;;5095622;28;20107;-67
2021/06/29 09:48:28;;;;;;;8.13;3.80;;;;;;;;;;5095532;28;20036;-67
2021/06/29 09:50:55;;;;;;;8.25;4.40;;;;;;;;;;5095418;28;20095;-67
2021/06/29 09:53:31;;;;;;;8.25;4.00;;;;;;;;;;5095408;28;20047;-67
2021/06/29 09:55:57;;;;;;;6.55;3.65;;;;;;;;;;5095405;28;20035;-66
2021/06/29 09:58:23;;;;;;;5.85;3.33;;;;;;;;;;5095198;28;20563;-67
2021/06/29 10:00:49;;;;;;;8.65;3.80;;;;;;;;;;5095197;28;20099;-67
2021/06/29 10:03:37;;;;;;;8.43;3.60;;;;;;;;;;5095275;28;20388;-67
2021/06/29 10:06:13;;;;;;;7.20;3.75;;;;;;;;;;5095250;28;20051;-67
2021/06/29 10:08:39;;;;;;;5.15;3.47;;;;;;;;;;5093862;28;20032;-68
2021/06/29 10:11:08;;;;;;;5.75;3.00;;;;;;;;;;5095194;28;20028;-67
2021/06/29 10:13:37;;;;;;;5.88;3.45;;;;;;;;;;5094527;28;20047;-67
2021/06/29 10:16:04;;;;;;;5.72;2.95;;;;;;;;;;5095050;28;20116;-67
2021/06/29 10:18:31;;;;;;;7.20;4.05;;;;;;;;;;5094996;28;20036;-67
2021/06/29 10:20:59;;;;;;;9.23;3.40;;;;;;;;;;5094904;28;20024;-67
2021/06/29 10:23:26;;;;;;;7.35;3.90;;;;;;;;;;5094805;28;20032;-67
2021/06/29 10:25:51;;;;;;;8.10;3.72;;;;;;;;;;5094550;28;20032;-68
2021/06/29 10:28:18;;;;;;;7.03;3.50;;;;;;;;;;5094534;28;20420;-67
2021/06/29 10:30:44;;;;;;;5.13;3.58;;;;;;;;;;5094899;28;20376;-66
2021/06/29 10:33:10;;;;;;;7.03;3.90;;;;;;;;;;5094759;28;20102;-67
2021/06/29 10:35:36;;;;;;;5.93;3.33;;;;;;;;;;5094479;28;20114;-66
2021/06/29 10:38:01;;;;;;;9.13;3.53;;;;;;;;;;5094723;28;20055;-67
2021/06/29 10:40:27;;;;;;;7.53;3.65;;;;;;;;;;5094342;28;20039;-66
2021/06/29 10:42:57;;;;;;;7.40;3.78;;;;;;;;;;5094517;28;20077;-66
2021/06/29 10:45:23;;;;;;;6.47;3.60;;;;;;;;;;5094588;28;20028;-67
2021/06/29 10:47:48;;;;;;;9.32;3.47;;;;;;;;;;5094673;28;20035;-67
2021/06/29 10:50:14;;;;;;;8.40;4.43;;;;;;;;;;5093903;28;20529;-67
2021/06/29 10:52:41;;;;;;;6.97;4.18;;;;;;;;;;5094268;28;20028;-67
2021/06/29 10:55:25;;;;;;;8.05;4.03;;;;;;;;;;5094236;28;20396;-67
2021/06/29 10:57:52;;;;;;;7.38;3.70;;;;;;;;;;5093875;28;20625;-67
2021/06/29 11:00:21;;;;;;;9.88;4.68;;;;;;;;;;5094050;28;20096;-67
2021/06/29 11:02:59;;;;;;;4.80;3.10;;;;;;;;;;5094052;28;20020;-67
2021/06/29 11:05:26;;;;;;;5.80;3.45;;;;;;;;;;5093570;28;20519;-67
2021/06/29 11:07:52;;;;;;;6.55;3.50;;;;;;;;;;5093622;28;20449;-67
2021/06/29 11:10:30;;;;;;;6.22;3.80;;;;;;;;;;5093635;28;20096;-67
2021/06/29 11:13:00;;;;;;;8.10;4.07;;;;;;;;;;5093575;28;20496;-67
2021/06/29 11:15:45;;;;;;;7.55;4.85;;;;;;;;;;5093473;28;20106;-67
2021/06/29 11:18:11;;;;;;;11.48;5.18;;;;;;;;;;5093751;28;20074;-68
2021/06/29 11:20:39;;;;;;;9.25;4.90;;;;;;;;;;5093305;28;20534;-67
2021/06/29 11:23:05;;;;;;;7.45;4.45;;;;;;;;;;5093834;28;20016;-67
2021/06/29 11:25:39;;;;;;;8.20;4.45;;;;;;;;;;5093637;28;20032;-67
2021/06/29 11:28:06;;;;;;;6.27;3.60;;;;;;;;;;5093475;28;20517;-67
2021/06/29 11:30:50;;;;;;;8.70;4.45;;;;;;;;;;5093584;28;20091;-67
2021/06/29 11:33:28;;;;;;;7.63;4.75;;;;;;;;;;5093563;28;20027;-66
2021/06/29 11:35:53;;;;;;;7.15;4.15;;;;;;;;;;5093474;28;20036;-67
2021/06/29 11:38:29;;;;;;;5.85;3.42;;;;;;;;;;5093223;28;20032;-67
2021/06/29 11:40:55;;;;;;;5.40;3.55;;;;;;;;;;5093476;28;20089;-67
2021/06/29 11:43:27;;;;;;;7.68;3.83;;;;;;;;;;5093506;28;20055;-67
2021/06/29 11:45:52;;;;;;;8.73;3.78;;;;;;;;;;5093053;28;20414;-68
2021/06/29 11:48:36;;;;;;;6.10;3.35;;;;;;;;;;5093409;28;20039;-68
2021/06/29 11:51:02;;;;;;;7.00;3.25;;;;;;;;;;5093329;28;20169;-68
2021/06/29 11:53:27;;;;;;;5.68;3.33;;;;;;;;;;5093070;28;20532;-67
2021/06/29 11:55:52;;;;;;;10.77;4.25;;;;;;;;;;5093535;28;20165;-67
2021/06/29 11:58:18;;;;;;;9.48;4.13;;;;;;;;;;5093281;28;20023;-67
2021/06/29 12:00:43;;;;;;;8.60;4.38;;;;;;;;;;5093195;28;20031;-67
2021/06/29 12:03:10;;;;;;;9.45;4.00;;;;;;;;;;5092929;28;20028;-67
2021/06/29 12:05:36;;;;;;;6.68;4.25;;;;;;;;;;5093233;28;20384;-68
2021/06/29 12:08:06;;;;;;;8.82;3.75;;;;;;;;;;5093279;28;20051;-67
2021/06/29 12:10:33;;;;;;;4.65;3.45;;;;;;;;;;5093076;28;20032;-67
2021/06/29 12:13:05;;;;;;;6.13;3.08;;;;;;;;;;5093089;28;20020;-68
2021/06/29 12:15:39;;;;;;;4.18;2.67;;;;;;;;;;5092735;28;20546;-67
2021/06/29 12:18:06;;;;;;;4.03;2.45;;;;;;;;;;5093211;28;20059;-67
2021/06/29 12:20:33;;;;;;;7.47;3.00;;;;;;;;;;5093011;28;20088;-67
2021/06/29 12:22:59;;;;;;;3.22;2.38;;;;;;;;;;5093441;28;20040;-67
2021/06/29 12:25:34;;;;;;;5.50;2.38;;;;;;;;;;5092979;28;20413;-68
2021/06/29 12:28:01;;;;;;;2.70;1.55;;;;;;;;;;5092773;28;20473;-67
2021/06/29 12:30:26;;;;;;;3.88;1.65;;;;;;;;;;5092737;28;20472;-67
2021/06/29 12:32:52;;;;;;;3.95;2.00;;;;;;;;;;5094897;28;20039;-67
2021/06/29 12:35:18;;;;;;;4.00;1.60;;;;;;;;;;5096940;28;20047;-67
2021/06/29 12:37:54;;;;;;;2.78;1.85;;;;;;;;;;5096882;28;20065;-67
2021/06/29 12:40:20;;;;;;;5.72;1.70;;;;;;;;;;5096845;28;20125;-66
2021/06/29 12:42:45;;;;;;;4.20;2.13;;;;;;;;;;5096844;28;20476;-67
2021/06/29 12:45:11;;;;;;;6.13;2.40;;;;;;;;;;5096781;28;20024;-67
2021/06/29 12:47:37;;;;;;;5.15;2.30;;;;;;;;;;5096991;28;20063;-67
2021/06/29 12:50:03;;;;;;;3.45;2.33;;;;;;;;;;5096641;28;20116;-67
2021/06/29 12:52:28;;;;;;;4.25;2.55;;;;;;;;;;5096572;28;20028;-67
2021/06/29 12:55:02;;;;;;;4.00;2.40;;;;;;;;;;5096332;28;20038;-67
2021/06/29 12:57:27;;;;;;;5.47;2.47;;;;;;;;;;5096600;28;20118;-68
2021/06/29 12:59:53;;;;;;;4.22;2.53;;;;;;;;;;5096415;28;20056;-67
2021/06/29 13:02:25;;;;;;;4.45;2.45;;;;;;;;;;5096543;28;20472;-67
2021/06/29 13:04:52;;;;;;;3.42;2.45;;;;;;;;;;5096391;28;20052;-67
2021/06/29 13:07:21;;;;;;;3.63;2.20;;;;;;;;;;5096396;28;20051;-67
2021/06/29 13:09:47;;;;;;;5.45;2.83;;;;;;;;;;5096242;28;20074;-67
2021/06/29 13:12:14;;;;;;;5.15;2.70;;;;;;;;;;5096325;28;20060;-67
2021/06/29 13:14:51;;;;;;;4.80;3.42;;;;;;;;;;5095916;28;20040;-67
2021/06/29 13:17:16;;;;;;;3.95;3.10;;;;;;;;;;5096224;28;20035;-67
2021/06/29 13:19:41;;;;;;;4.60;3.00;;;;;;;;;;5095967;28;20032;-67
2021/06/29 13:22:08;;;;;;;4.60;2.80;;;;;;;;;;5095835;28;20065;-67
2021/06/29 13:24:39;;;;;;;10.43;3.72;;;;;;;;;;5095987;28;20039;-67
2021/06/29 13:27:05;;;;;;;5.95;3.28;;;;;;;;;;5095985;28;20032;-67
2021/06/29 13:29:32;;;;;;;4.68;3.47;;;;;;;;;;5095854;28;20495;-66
2021/06/29 13:31:58;;;;;;;4.70;3.30;;;;;;;;;;5095882;28;20035;-67
2021/06/29 13:34:34;;;;;;;4.97;3.40;;;;;;;;;;5095400;28;20044;-67
2021/06/29 13:37:18;;;;;;;5.95;4.43;;;;;;;;;;5095489;28;20392;-67
2021/06/29 13:39:44;;;;;;;7.35;4.00;;;;;;;;;;5095468;28;20043;-67
2021/06/29 13:42:18;;;;;;;8.95;5.47;;;;;;;;;;5095800;28;20032;-67
2021/06/29 13:44:54;;;;;;;7.85;4.68;;;;;;;;;;5095244;28;20114;-67
2021/06/29 13:47:19;;;;;;;7.55;5.00;;;;;;;;;;5095351;28;20476;-67
2021/06/29 13:49:55;;;;;;;7.43;4.80;;;;;;;;;;5095049;28;20040;-67
2021/06/29 13:52:20;;;;;;;8.23;4.75;;;;;;;;;;5094867;28;20039;-67
2021/06/29 13:55:02;;;;;;;7.55;5.15;;;;;;;;;;5095207;28;20035;-67
2021/06/29 13:57:27;;;;;;;11.02;4.85;;;;;;;;;;5095433;28;20074;-67
2021/06/29 13:59:52;;;;;;;8.23;5.55;;;;;;;;;;5095188;28;20024;-67
2021/06/29 14:02:26;;;;;;;8.38;4.60;;;;;;;;;;5095387;28;20368;-67
2021/06/29 14:04:53;;;;;;;6.90;5.03;;;;;;;;;;5095162;28;20407;-67
2021/06/29 14:07:19;;;;;;;9.10;5.10;;;;;;;;;;5095568;28;20111;-67
2021/06/29 14:09:45;;;;;;;6.57;5.05;;;;;;;;;;5094979;28;20047;-67
2021/06/29 14:12:23;;;;;;;7.93;4.40;;;;;;;;;;5095246;28;20063;-68
2021/06/29 14:14:49;;;;;;;7.68;4.28;;;;;;;;;;5094813;28;20032;-67
2021/06/29 14:17:14;;;;;;;11.55;5.53;;;;;;;;;;5095079;28;20478;-67
2021/06/29 14:19:40;;;;;;;10.68;5.05;;;;;;;;;;5094826;28;20035;-67
2021/06/29 14:22:15;;;;;;;6.80;5.22;;;;;;;;;;5094893;28;20474;-67
2021/06/29 14:24:41;;;;;;;10.40;6.25;;;;;;;;;;5094726;28;20028;-67
2021/06/29 14:27:06;;;;;;;8.80;5.72;;;;;;;;;;5094533;28;20484;-67